createdAt,value
2018-10-21T00:02:09.068Z,102659.25
2018-10-21T00:04:35.993Z,102658.62
2018-10-21T00:07:02.905Z,102658.36
2018-10-21T00:09:29.876Z,102658.21
2018-10-21T00:11:56.818Z,102656.09
2018-10-21T00:14:23.759Z,102653.28
2018-10-21T00:16:50.697Z,102657.89
2018-10-21T00:19:17.592Z,102656.55
2018-10-21T00:21:44.517Z,102649.72
2018-10-21T00:24:11.450Z,102665.34
2018-10-21T00:26:38.372Z,102660.94
2018-10-21T00:29:05.343Z,102661.78
2018-10-21T00:31:32.248Z,102653.85
2018-10-21T00:33:59.152Z,102657.63
2018-10-21T00:36:26.078Z,102659.45
2018-10-21T00:38:53.038Z,102655.05
2018-10-21T00:41:19.985Z,102648.32
2018-10-21T00:43:46.964Z,102636.77
2018-10-21T00:46:13.916Z,102632.47
2018-10-21T00:48:40.917Z,102629.14
2018-10-21T00:51:07.907Z,102626.81
2018-10-21T00:53:34.785Z,102621.27
2018-10-21T00:56:01.699Z,102622.55
2018-10-21T00:58:28.637Z,102620.94
2018-10-21T01:00:55.552Z,102614.77
2018-10-21T01:03:22.513Z,102612.08
2018-10-21T01:05:50.218Z,102612.94
2018-10-21T01:08:17.156Z,102604.30
2018-10-21T01:10:45.491Z,102616.11
2018-10-21T01:13:14.928Z,102617.34
2018-10-21T01:15:42.620Z,102606.56
2018-10-21T01:18:09.600Z,102606.84
2018-10-21T01:20:36.500Z,102603.87
2018-10-21T01:23:03.620Z,102605.48
2018-10-21T01:25:30.545Z,102600.62
2018-10-21T01:27:57.476Z,102601.72
2018-10-21T01:30:24.431Z,102604.72
2018-10-21T01:32:51.356Z,102606.07
2018-10-21T01:35:18.260Z,102602.87
2018-10-21T01:37:45.363Z,102605.71
2018-10-21T01:40:36.100Z,102602.30
2018-10-21T01:43:03.526Z,102597.75
2018-10-21T01:45:30.461Z,102589.63
2018-10-21T01:47:58.671Z,102597.05
2018-10-21T01:50:25.857Z,102598.12
2018-10-21T01:52:53.669Z,102602.17
2018-10-21T01:55:20.737Z,102605.48
2018-10-21T01:57:47.682Z,102608.19
2018-10-21T02:00:14.593Z,102608.90
2018-10-21T02:02:41.532Z,102597.98
2018-10-21T02:05:08.454Z,102604.23
2018-10-21T02:07:35.385Z,102595.44
2018-10-21T02:10:02.485Z,102595.70
2018-10-21T02:12:29.856Z,102596.64
2018-10-21T02:14:56.821Z,102597.55
2018-10-21T02:17:23.834Z,102600.22
2018-10-21T02:19:52.120Z,102592.92
2018-10-21T02:22:19.032Z,102587.95
2018-10-21T02:24:47.076Z,102590.44
2018-10-21T02:27:14.455Z,102584.61
2018-10-21T02:29:42.364Z,102583.47
2018-10-21T02:32:09.278Z,102574.30
2018-10-21T02:34:36.440Z,102569.83
2018-10-21T02:37:03.384Z,102562.80
2018-10-21T02:39:30.349Z,102569.61
2018-10-21T02:41:57.275Z,102564.86
2018-10-21T02:44:24.572Z,102562.05
2018-10-21T02:46:52.635Z,102555.67
2018-10-21T02:49:20.211Z,102570.81
2018-10-21T02:51:52.823Z,102564.80
2018-10-21T02:54:22.393Z,102567.57
2018-10-21T02:56:49.568Z,102579.89
2018-10-21T02:59:16.496Z,102585.20
2018-10-21T03:01:43.399Z,102572.53
2018-10-21T03:04:10.320Z,102582.24
2018-10-21T03:06:37.224Z,102581.97
2018-10-21T03:09:06.069Z,102577.57
2018-10-21T03:11:33.013Z,102580.70
2018-10-21T03:13:59.925Z,102571.95
2018-10-21T03:16:26.828Z,102580.98
2018-10-21T03:18:53.764Z,102582.66
2018-10-21T03:21:20.786Z,102586.09
2018-10-21T03:23:47.678Z,102576.67
2018-10-21T03:26:14.576Z,102585.39
2018-10-21T03:28:41.500Z,102586.81
2018-10-21T03:31:08.424Z,102595.30
2018-10-21T03:33:35.512Z,102599.06
2018-10-21T03:36:02.308Z,102595.10
2018-10-21T03:38:29.265Z,102595.81
2018-10-21T03:40:56.307Z,102594.52
2018-10-21T03:43:23.280Z,102588.20
2018-10-21T03:45:50.293Z,102590.39
2018-10-21T03:48:17.237Z,102580.19
2018-10-21T03:50:44.128Z,102581.10
2018-10-21T03:53:11.056Z,102586.21
2018-10-21T03:55:39.431Z,102587.41
2018-10-21T03:58:06.336Z,102592.00
2018-10-21T04:00:33.512Z,102591.88
2018-10-21T04:03:00.444Z,102591.56
2018-10-21T04:05:27.332Z,102593.26
2018-10-21T04:07:54.217Z,102591.63
2018-10-21T04:10:21.118Z,102606.88
2018-10-21T04:12:47.993Z,102602.33
2018-10-21T04:15:14.886Z,102596.58
2018-10-21T04:17:41.769Z,102585.80
2018-10-21T04:20:08.768Z,102589.00
2018-10-21T04:22:43.856Z,102586.95
2018-10-21T04:25:10.914Z,102588.30
2018-10-21T04:27:37.818Z,102590.34
2018-10-21T04:30:05.973Z,102589.45
2018-10-21T04:32:33.393Z,102588.93
2018-10-21T04:35:00.300Z,102585.59
2018-10-21T04:37:38.880Z,102583.54
2018-10-21T04:40:15.405Z,102577.31
2018-10-21T04:42:42.662Z,102566.09
2018-10-21T04:45:10.357Z,102574.19
2018-10-21T04:47:37.260Z,102569.34
2018-10-21T04:50:05.299Z,102562.13
2018-10-21T04:52:32.696Z,102562.13
2018-10-21T04:55:06.516Z,102567.64
2018-10-21T04:57:34.017Z,102566.61
2018-10-21T05:00:00.960Z,102553.70
2018-10-21T05:02:28.804Z,102567.02
2018-10-21T05:04:55.729Z,102562.78
2018-10-21T05:07:22.656Z,102560.02
2018-10-21T05:09:49.553Z,102560.88
2018-10-21T05:12:16.433Z,102558.75
2018-10-21T05:14:43.396Z,102567.47
2018-10-21T05:17:10.333Z,102567.73
2018-10-21T05:19:37.240Z,102562.22
2018-10-21T05:22:04.757Z,102558.65
2018-10-21T05:24:31.624Z,102561.16
2018-10-21T05:26:58.521Z,102551.65
2018-10-21T05:29:25.395Z,102568.73
2018-10-21T05:31:52.291Z,102559.80
2018-10-21T05:34:19.197Z,102556.59
2018-10-21T05:36:46.101Z,102569.79
2018-10-21T05:39:13.076Z,102571.34
2018-10-21T05:41:40.448Z,102563.31
2018-10-21T05:44:07.452Z,102570.05
2018-10-21T05:46:41.943Z,102563.95
2018-10-21T05:49:09.060Z,102565.02
2018-10-21T05:51:36.058Z,102565.21
2018-10-21T05:54:03.029Z,102564.57
2018-10-21T05:56:29.933Z,102564.92
2018-10-21T05:58:56.825Z,102560.69
2018-10-21T06:01:23.737Z,102565.98
2018-10-21T06:03:50.632Z,102569.88
2018-10-21T06:06:17.540Z,102566.02
2018-10-21T06:08:44.436Z,102566.73
2018-10-21T06:11:11.340Z,102565.64
2018-10-21T06:13:38.228Z,102573.25
2018-10-21T06:16:05.249Z,102568.69
2018-10-21T06:18:32.132Z,102568.41
2018-10-21T06:21:01.976Z,102565.90
2018-10-21T06:23:28.862Z,102570.01
2018-10-21T06:25:55.759Z,102573.55
2018-10-21T06:28:22.648Z,102577.46
2018-10-21T06:30:49.559Z,102572.77
2018-10-21T06:33:16.452Z,102573.61
2018-10-21T06:35:43.349Z,102576.49
2018-10-21T06:38:10.265Z,102573.38
2018-10-21T06:43:10.893Z,102580.69
2018-10-21T06:45:37.800Z,102582.75
2018-10-21T06:48:04.928Z,102587.50
2018-10-21T06:50:31.829Z,102584.32
2018-10-21T06:52:58.753Z,102580.59
2018-10-21T06:55:25.653Z,102580.17
2018-10-21T06:57:52.626Z,102575.95
2018-10-21T07:00:19.478Z,102575.95
2018-10-21T07:02:46.388Z,102570.20
2018-10-21T07:05:24.916Z,102572.72
2018-10-21T07:07:52.068Z,102577.25
2018-10-21T07:10:19.721Z,102578.59
2018-10-21T07:12:46.632Z,102577.47
2018-10-21T07:15:13.609Z,102579.36
2018-10-21T07:17:40.497Z,102582.13
2018-10-21T07:20:07.618Z,102582.50
2018-10-21T07:22:34.517Z,102584.39
2018-10-21T07:25:01.432Z,102586.73
2018-10-21T07:27:28.334Z,102580.85
2018-10-21T07:29:55.236Z,102584.62
2018-10-21T07:32:22.136Z,102590.19
2018-10-21T07:34:49.037Z,102581.28
2018-10-21T07:37:15.948Z,102580.69
2018-10-21T07:39:42.861Z,102574.28
2018-10-21T07:42:09.773Z,102576.98
2018-10-21T07:44:36.675Z,102575.36
2018-10-21T07:47:03.612Z,102578.95
2018-10-21T07:49:30.518Z,102579.83
2018-10-21T07:51:57.438Z,102580.83
2018-10-21T07:54:24.329Z,102584.23
2018-10-21T07:56:51.229Z,102584.94
2018-10-21T07:59:18.136Z,102581.77
2018-10-21T08:01:45.065Z,102583.00
2018-10-21T08:04:12.099Z,102589.84
2018-10-21T08:06:50.713Z,102589.87
2018-10-21T08:09:17.610Z,102592.11
2018-10-21T08:11:44.521Z,102587.41
2018-10-21T08:14:11.424Z,102592.34
2018-10-21T08:16:38.337Z,102590.83
2018-10-21T08:19:05.259Z,102598.11
2018-10-21T08:21:32.196Z,102595.76
2018-10-21T08:23:59.114Z,102597.62
2018-10-21T08:26:26.033Z,102598.50
2018-10-21T08:28:52.936Z,102592.14
2018-10-21T08:31:19.863Z,102594.72
2018-10-21T08:33:46.779Z,102598.64
2018-10-21T08:36:13.749Z,102598.39
2018-10-21T08:38:40.656Z,102595.38
2018-10-21T08:41:07.589Z,102596.46
2018-10-21T08:43:34.493Z,102597.54
2018-10-21T08:46:01.369Z,102589.11
2018-10-21T08:48:28.296Z,102589.45
2018-10-21T08:50:55.184Z,102589.11
2018-10-21T08:53:22.086Z,102586.75
2018-10-21T08:55:49.028Z,102584.36
2018-10-21T08:58:16.711Z,102587.48
2018-10-21T09:00:43.537Z,102578.01
2018-10-21T09:03:10.422Z,102582.78
2018-10-21T09:05:37.316Z,102585.86
2018-10-21T09:08:04.604Z,102584.02
2018-10-21T09:10:31.575Z,102584.59
2018-10-21T09:12:59.796Z,102586.97
2018-10-21T09:15:27.531Z,102586.99
2018-10-21T09:17:54.363Z,102580.22
2018-10-21T09:20:21.261Z,102581.95
2018-10-21T09:22:48.161Z,102575.59
2018-10-21T09:25:15.130Z,102579.31
2018-10-21T09:27:42.896Z,102580.70
2018-10-21T09:30:12.825Z,102577.62
2018-10-21T09:32:39.737Z,102570.70
2018-10-21T09:35:08.651Z,102574.95
2018-10-21T09:37:35.557Z,102572.56
2018-10-21T09:40:02.679Z,102565.94
2018-10-21T09:42:29.532Z,102566.63
2018-10-21T09:44:56.432Z,102568.49
2018-10-21T09:47:23.346Z,102568.47
2018-10-21T09:49:50.285Z,102564.21
2018-10-21T09:52:17.277Z,102567.95
2018-10-21T09:54:44.065Z,102558.41
2018-10-21T09:57:10.954Z,102563.28
2018-10-21T09:59:37.834Z,102561.22
2018-10-21T10:02:11.166Z,102558.50
2018-10-21T10:04:38.068Z,102552.73
2018-10-21T10:07:05.031Z,102553.08
2018-10-21T10:09:31.927Z,102548.66
2018-10-21T10:11:58.909Z,102547.66
2018-10-21T10:14:25.828Z,102545.94
2018-10-21T10:16:52.732Z,102544.25
2018-10-21T10:19:19.725Z,102545.27
2018-10-21T10:21:46.596Z,102540.56
2018-10-21T10:24:14.504Z,102538.67
2018-10-21T10:26:42.602Z,102534.42
2018-10-21T10:29:10.688Z,102533.34
2018-10-21T10:31:38.608Z,102530.48
2018-10-21T10:34:05.596Z,102526.94
2018-10-21T10:36:32.517Z,102532.70
2018-10-21T10:38:59.499Z,102532.17
2018-10-21T10:41:26.429Z,102531.69
2018-10-21T10:43:54.105Z,102531.49
2018-10-21T10:46:21.053Z,102523.62
2018-10-21T10:48:47.937Z,102525.50
2018-10-21T10:51:14.837Z,102516.62
2018-10-21T10:53:41.720Z,102521.97
2018-10-21T10:56:08.603Z,102510.55
2018-10-21T10:58:35.480Z,102509.00
2018-10-21T11:01:02.456Z,102509.31
2018-10-21T11:03:29.309Z,102513.70
2018-10-21T11:05:56.209Z,102505.63
2018-10-21T11:08:29.824Z,102495.44
2018-10-21T11:10:56.892Z,102495.38
2018-10-21T11:13:23.797Z,102494.13
2018-10-21T11:15:50.728Z,102495.04
2018-10-21T11:18:17.616Z,102494.72
2018-10-21T11:20:45.116Z,102498.13
2018-10-21T11:23:12.008Z,102495.41
2018-10-21T11:25:38.892Z,102486.55
2018-10-21T11:28:05.892Z,102490.89
2018-10-21T11:30:32.774Z,102492.58
2018-10-21T11:32:59.697Z,102477.66
2018-10-21T11:35:26.579Z,102484.41
2018-10-21T11:37:53.447Z,102478.41
2018-10-21T11:40:20.352Z,102476.50
2018-10-21T11:42:47.274Z,102477.25
2018-10-21T11:45:14.158Z,102471.98
2018-10-21T11:47:41.053Z,102470.47
2018-10-21T11:50:07.949Z,102471.86
2018-10-21T11:52:34.983Z,102462.11
2018-10-21T11:55:01.922Z,102466.95
2018-10-21T11:57:28.756Z,102467.82
2018-10-21T11:59:55.668Z,102461.25
2018-10-21T12:02:22.587Z,102459.89
2018-10-21T12:04:49.484Z,102460.84
2018-10-21T12:07:16.435Z,102461.64
2018-10-21T12:09:43.288Z,102460.30
2018-10-21T12:12:10.220Z,102457.37
2018-10-21T12:14:37.105Z,102455.31
2018-10-21T12:17:04.282Z,102453.81
2018-10-21T12:19:31.183Z,102447.80
2018-10-21T12:21:58.089Z,102444.63
2018-10-21T12:24:24.985Z,102444.84
2018-10-21T12:26:51.942Z,102445.60
2018-10-21T12:29:18.932Z,102448.44
2018-10-21T12:31:45.773Z,102444.69
2018-10-21T12:34:12.661Z,102439.94
2018-10-21T12:36:39.564Z,102437.13
2018-10-21T12:39:07.688Z,102434.76
2018-10-21T12:41:34.606Z,102437.17
2018-10-21T12:44:01.508Z,102432.88
2018-10-21T12:46:28.420Z,102426.17
2018-10-21T12:48:55.333Z,102437.65
2018-10-21T12:51:22.253Z,102432.30
2018-10-21T12:53:49.194Z,102437.83
2018-10-21T12:56:16.095Z,102430.94
2018-10-21T12:58:43.028Z,102430.69
2018-10-21T13:01:10.038Z,102417.56
2018-10-21T13:03:36.918Z,102424.30
2018-10-21T13:06:03.826Z,102414.59
2018-10-21T13:08:30.748Z,102410.84
2018-10-21T13:10:57.653Z,102411.14
2018-10-21T13:13:24.568Z,102409.32
2018-10-21T13:15:51.457Z,102406.69
2018-10-21T13:18:18.374Z,102403.59
2018-10-21T13:20:45.266Z,102412.09
2018-10-21T13:23:12.175Z,102403.22
2018-10-21T13:25:39.056Z,102401.48
2018-10-21T13:28:06.013Z,102401.61
2018-10-21T13:30:32.892Z,102395.79
2018-10-21T13:32:59.792Z,102397.16
2018-10-21T13:35:26.696Z,102397.16
2018-10-21T13:37:53.591Z,102389.24
2018-10-21T13:40:20.599Z,102389.08
2018-10-21T13:42:47.433Z,102384.66
2018-10-21T13:45:14.319Z,102384.83
2018-10-21T13:47:41.240Z,102389.11
2018-10-21T13:50:08.171Z,102388.67
2018-10-21T13:52:35.136Z,102381.94
2018-10-21T13:55:02.027Z,102382.69
2018-10-21T13:57:28.948Z,102384.09
2018-10-21T13:59:55.847Z,102379.09
2018-10-21T14:02:22.740Z,102391.34
2018-10-21T14:04:49.641Z,102375.05
2018-10-21T14:07:16.572Z,102381.81
2018-10-21T14:09:43.456Z,102376.83
2018-10-21T14:12:10.384Z,102372.33
2018-10-21T14:14:37.284Z,102367.46
2018-10-21T14:17:04.226Z,102371.05
2018-10-21T14:19:31.124Z,102367.66
2018-10-21T14:21:58.091Z,102365.94
2018-10-21T14:24:24.980Z,102365.94
2018-10-21T14:26:51.865Z,102364.24
2018-10-21T14:29:18.790Z,102356.91
2018-10-21T14:31:45.684Z,102355.18
2018-10-21T14:34:12.587Z,102359.14
2018-10-21T14:36:39.473Z,102358.89
2018-10-21T14:39:08.259Z,102355.34
2018-10-21T14:41:35.140Z,102356.59
2018-10-21T14:44:02.050Z,102353.08
2018-10-21T14:46:28.951Z,102356.38
2018-10-21T14:48:55.846Z,102349.11
2018-10-21T14:51:22.738Z,102349.48
2018-10-21T14:53:49.644Z,102343.05
2018-10-21T14:56:16.589Z,102335.33
2018-10-21T14:58:43.444Z,102337.85
2018-10-21T15:01:10.531Z,102334.63
2018-10-21T15:03:37.523Z,102333.84
2018-10-21T15:06:04.347Z,102333.05
2018-10-21T15:08:31.233Z,102327.28
2018-10-21T15:10:58.116Z,102326.62
2018-10-21T15:13:24.997Z,102329.51
2018-10-21T15:15:51.889Z,102327.31
2018-10-21T15:18:18.912Z,102320.06
2018-10-21T15:20:45.692Z,102321.78
2018-10-21T15:23:12.688Z,102318.73
2018-10-21T15:25:39.525Z,102323.51
2018-10-21T15:28:06.477Z,102320.79
2018-10-21T15:30:33.346Z,102317.24
2018-10-21T15:33:00.238Z,102315.09
2018-10-21T15:35:27.136Z,102320.52
2018-10-21T15:37:54.041Z,102321.55
2018-10-21T15:40:21.072Z,102320.86
2018-10-21T15:42:47.981Z,102319.39
2018-10-21T15:45:14.780Z,102314.33
2018-10-21T15:47:41.659Z,102308.76
2018-10-21T15:50:08.877Z,102313.20
2018-10-21T15:52:35.729Z,102314.72
2018-10-21T15:55:02.646Z,102308.13
2018-10-21T15:57:29.560Z,102314.09
2018-10-21T15:59:56.460Z,102308.82
2018-10-21T16:02:23.415Z,102310.70
2018-10-21T16:04:50.292Z,102304.95
2018-10-21T16:07:17.182Z,102307.00
2018-10-21T16:09:44.093Z,102305.30
2018-10-21T16:12:11.004Z,102309.25
2018-10-21T16:14:37.970Z,102304.84
2018-10-21T16:17:05.036Z,102310.61
2018-10-21T16:19:31.967Z,102309.41
2018-10-21T16:21:58.856Z,102309.94
2018-10-21T16:24:25.765Z,102310.44
2018-10-21T16:26:52.669Z,102307.78
2018-10-21T16:29:19.560Z,102306.42
2018-10-21T16:31:46.537Z,102310.16
2018-10-21T16:34:14.198Z,102312.55
2018-10-21T16:36:41.037Z,102318.18
2018-10-21T16:39:08.927Z,102315.48
2018-10-21T16:41:35.789Z,102319.23
2018-10-21T16:44:02.696Z,102320.25
2018-10-21T16:46:29.592Z,102320.12
2018-10-21T16:48:56.496Z,102316.90
2018-10-21T16:51:23.450Z,102310.16
2018-10-21T16:53:50.325Z,102306.25
2018-10-21T16:56:17.242Z,102309.03
2018-10-21T16:58:44.141Z,102303.98
2018-10-21T17:01:11.075Z,102303.15
2018-10-21T17:03:38.079Z,102296.36
2018-10-21T17:06:04.862Z,102297.19
2018-10-21T17:08:31.748Z,102297.19
2018-10-21T17:10:58.795Z,102304.17
2018-10-21T17:13:25.578Z,102298.59
2018-10-21T17:15:52.476Z,102295.41
2018-10-21T17:18:19.357Z,102302.09
2018-10-21T17:20:46.261Z,102298.04
2018-10-21T17:23:13.161Z,102297.06
2018-10-21T17:25:40.051Z,102291.53
2018-10-21T17:28:06.958Z,102293.92
2018-10-21T17:30:33.930Z,102296.36
2018-10-21T17:33:00.728Z,102289.30
2018-10-21T17:35:27.685Z,102292.38
2018-10-21T17:37:54.584Z,102296.30
2018-10-21T17:40:21.492Z,102297.66
2018-10-21T17:42:48.371Z,102298.00
2018-10-21T17:45:15.350Z,102297.33
2018-10-21T17:47:42.282Z,102295.87
2018-10-21T17:50:10.659Z,102300.95
2018-10-21T17:52:37.692Z,102293.02
2018-10-21T17:55:04.527Z,102298.45
2018-10-21T17:57:31.448Z,102297.25
2018-10-21T17:59:58.410Z,102289.31
2018-10-21T18:02:25.420Z,102296.42
2018-10-21T18:04:52.292Z,102288.97
2018-10-21T18:07:19.208Z,102287.80
2018-10-21T18:09:46.096Z,102290.02
2018-10-21T18:12:12.992Z,102291.88
2018-10-21T18:14:39.896Z,102293.56
2018-10-21T18:17:06.813Z,102303.20
2018-10-21T18:19:33.718Z,102296.56
2018-10-21T18:22:00.616Z,102299.80
2018-10-21T18:24:27.519Z,102298.44
2018-10-21T18:26:54.416Z,102298.44
2018-10-21T18:29:21.565Z,102302.52
2018-10-21T18:31:48.555Z,102305.56
2018-10-21T18:34:15.795Z,102305.23
2018-10-21T18:36:42.765Z,102304.92
2018-10-21T18:39:10.411Z,102291.39
2018-10-21T18:41:37.779Z,102297.83
2018-10-21T18:44:05.437Z,102306.62
2018-10-21T18:46:32.500Z,102304.25
2018-10-21T18:49:00.269Z,102303.73
2018-10-21T18:51:27.250Z,102310.02
2018-10-21T18:53:54.347Z,102307.27
2018-10-21T18:56:21.904Z,102306.09
2018-10-21T18:58:48.970Z,102304.59
2018-10-21T19:01:15.927Z,102297.52
2018-10-21T19:03:42.811Z,102307.50
2018-10-21T19:06:09.693Z,102294.81
2018-10-21T19:08:36.575Z,102302.61
2018-10-21T19:11:03.528Z,102300.58
2018-10-21T19:13:30.675Z,102305.99
2018-10-21T19:15:57.711Z,102298.20
2018-10-21T19:18:24.612Z,102296.17
2018-10-21T19:20:51.605Z,102294.14
2018-10-21T19:23:18.569Z,102299.22
2018-10-21T19:25:45.493Z,102290.08
2018-10-21T19:28:12.511Z,102293.50
2018-10-21T19:30:39.444Z,102290.45
2018-10-21T19:33:06.657Z,102290.97
2018-10-21T19:35:33.576Z,102292.66
2018-10-21T19:38:00.477Z,102290.81
2018-10-21T19:40:27.380Z,102289.62
2018-10-21T19:42:54.272Z,102292.30
2018-10-21T19:45:21.172Z,102285.86
2018-10-21T19:47:48.058Z,102284.50
2018-10-21T19:50:15.797Z,102284.81
2018-10-21T19:52:43.025Z,102288.03
2018-10-21T19:55:10.383Z,102285.66
2018-10-21T19:57:37.159Z,102286.30
2018-10-21T20:00:06.058Z,102286.98
2018-10-21T20:02:32.995Z,102281.41
2018-10-21T20:04:59.891Z,102268.70
2018-10-21T20:07:26.894Z,102281.71
2018-10-21T20:09:53.914Z,102279.86
2018-10-21T20:12:21.145Z,102279.34
2018-10-21T20:14:48.485Z,102282.05
2018-10-21T20:17:15.368Z,102277.48
2018-10-21T20:19:42.253Z,102279.48
2018-10-21T20:22:10.275Z,102281.36
2018-10-21T20:24:37.186Z,102280.69
2018-10-21T20:27:04.445Z,102266.27
2018-10-21T20:29:31.353Z,102271.88
2018-10-21T20:31:58.228Z,102282.19
2018-10-21T20:34:25.113Z,102273.38
2018-10-21T20:36:52.158Z,102275.41
2018-10-21T20:39:19.139Z,102271.69
2018-10-21T20:41:46.059Z,102267.95
2018-10-21T20:44:12.988Z,102254.94
2018-10-21T20:46:39.825Z,102263.06
2018-10-21T20:49:06.708Z,102263.22
2018-10-21T20:51:33.742Z,102263.74
2018-10-21T20:54:00.675Z,102267.62
2018-10-21T20:56:27.776Z,102263.55
2018-10-21T20:58:54.718Z,102261.19
2018-10-21T21:01:21.617Z,102258.67
2018-10-21T21:03:48.505Z,102253.73
2018-10-21T21:06:15.443Z,102251.55
2018-10-21T21:08:42.300Z,102252.23
2018-10-21T21:11:09.842Z,102258.81
2018-10-21T21:13:36.749Z,102251.36
2018-10-21T21:16:04.135Z,102255.43
2018-10-21T21:18:30.988Z,102252.91
2018-10-21T21:20:57.894Z,102258.52
2018-10-21T21:23:24.780Z,102247.69
2018-10-21T21:25:51.664Z,102256.30
2018-10-21T21:28:18.551Z,102253.73
2018-10-21T21:30:45.514Z,102251.36
2018-10-21T21:33:12.381Z,102254.12
2018-10-21T21:35:39.276Z,102255.13
2018-10-21T21:38:06.196Z,102248.17
2018-10-21T21:40:33.093Z,102249.72
2018-10-21T21:43:00.372Z,102245.80
2018-10-21T21:45:27.256Z,102247.83
2018-10-21T21:47:54.351Z,102244.97
2018-10-21T21:50:21.204Z,102240.77
2018-10-21T21:52:48.148Z,102236.55
2018-10-21T21:55:15.100Z,102249.42
2018-10-21T21:57:41.980Z,102249.23
2018-10-21T22:00:11.771Z,102243.66
2018-10-21T22:02:38.660Z,102242.80
2018-10-21T22:05:07.080Z,102239.27
2018-10-21T22:07:34.504Z,102244.69
2018-10-21T22:10:01.490Z,102244.69
2018-10-21T22:12:30.351Z,102251.66
2018-10-21T22:14:57.320Z,102240.67
2018-10-21T22:17:24.290Z,102236.95
2018-10-21T22:19:51.204Z,102233.23
2018-10-21T22:22:18.194Z,102227.13
2018-10-21T22:24:45.037Z,102219.53
2018-10-21T22:27:11.933Z,102221.22
2018-10-21T22:29:38.886Z,102226.12
2018-10-21T22:32:05.791Z,102224.95
2018-10-21T22:34:32.692Z,102223.06
2018-10-21T22:36:59.596Z,102220.02
2018-10-21T22:39:26.535Z,102221.03
2018-10-21T22:41:53.534Z,102227.45
2018-10-21T22:44:20.602Z,102223.39
2018-10-21T22:46:47.788Z,102218.28
2018-10-21T22:49:14.545Z,102214.73
2018-10-21T22:51:42.492Z,102215.91
2018-10-21T22:54:09.415Z,102219.63
2018-10-21T22:56:36.293Z,102217.93
2018-10-21T22:59:03.216Z,102217.06
2018-10-21T23:01:30.107Z,102210.63
2018-10-21T23:03:56.995Z,102213.82
2018-10-21T23:06:23.893Z,102218.55
2018-10-21T23:08:50.784Z,102215.02
2018-10-21T23:11:17.665Z,102216.03
2018-10-21T23:13:44.535Z,102216.53
2018-10-21T23:16:11.492Z,102216.18
2018-10-21T23:18:38.363Z,102218.20
2018-10-21T23:21:05.227Z,102205.68
2018-10-21T23:23:32.112Z,102207.86
2018-10-21T23:25:59.007Z,102205.68
2018-10-21T23:28:25.884Z,102203.80
2018-10-21T23:30:52.781Z,102194.50
2018-10-21T23:33:19.676Z,102194.84
2018-10-21T23:35:46.563Z,102187.05
2018-10-21T23:38:13.462Z,102192.13
2018-10-21T23:40:40.356Z,102190.44
2018-10-21T23:43:07.249Z,102190.09
2018-10-21T23:45:34.141Z,102192.80
2018-10-21T23:48:01.080Z,102187.05
2018-10-21T23:53:01.595Z,102193.47
2018-10-21T23:55:28.477Z,102194.16
2018-10-21T23:57:55.398Z,102196.18
